sensor_id;sensor_type;location;lat;lon;timestamp;P1;durP1;ratioP1;P2;durP2;ratioP2
45342;SDS011;31077;50.872;4.352;2022-12-18T00:01:29;17.20;;;13.73;;
45342;SDS011;31077;50.872;4.352;2022-12-18T00:03:58;17.60;;;14.10;;
45342;SDS011;31077;50.872;4.352;2022-12-18T00:06:25;18.13;;;14.63;;
45342;SDS011;31077;50.872;4.352;2022-12-18T00:08:52;15.88;;;14.02;;
45342;SDS011;31077;50.872;4.352;2022-12-18T00:11:20;18.83;;;14.30;;
45342;SDS011;31077;50.872;4.352;2022-12-18T00:13:47;18.73;;;15.25;;
45342;SDS011;31077;50.872;4.352;2022-12-18T00:16:15;19.77;;;15.05;;
45342;SDS011;31077;50.872;4.352;2022-12-18T00:18:46;16.17;;;13.70;;
45342;SDS011;31077;50.872;4.352;2022-12-18T00:21:15;18.27;;;14.32;;
45342;SDS011;31077;50.872;4.352;2022-12-18T00:23:42;17.80;;;13.57;;
45342;SDS011;31077;50.872;4.352;2022-12-18T00:26:12;17.35;;;13.63;;
45342;SDS011;31077;50.872;4.352;2022-12-18T00:28:42;17.73;;;13.63;;
45342;SDS011;31077;50.872;4.352;2022-12-18T00:31:11;18.67;;;14.20;;
45342;SDS011;31077;50.872;4.352;2022-12-18T00:33:38;16.20;;;13.38;;
45342;SDS011;31077;50.872;4.352;2022-12-18T00:36:06;17.25;;;13.75;;
45342;SDS011;31077;50.872;4.352;2022-12-18T00:38:34;16.88;;;13.50;;
45342;SDS011;31077;50.872;4.352;2022-12-18T00:41:00;16.42;;;12.77;;
45342;SDS011;31077;50.872;4.352;2022-12-18T00:43:26;17.27;;;13.65;;
45342;SDS011;31077;50.872;4.352;2022-12-18T00:45:52;16.25;;;12.73;;
45342;SDS011;31077;50.872;4.352;2022-12-18T00:48:18;19.73;;;13.02;;
45342;SDS011;31077;50.872;4.352;2022-12-18T00:50:43;15.88;;;12.48;;
45342;SDS011;31077;50.872;4.352;2022-12-18T00:53:09;16.75;;;13.20;;
45342;SDS011;31077;50.872;4.352;2022-12-18T00:55:37;18.33;;;13.27;;
45342;SDS011;31077;50.872;4.352;2022-12-18T00:58:04;16.75;;;13.80;;
45342;SDS011;31077;50.872;4.352;2022-12-18T01:00:30;14.88;;;12.43;;
45342;SDS011;31077;50.872;4.352;2022-12-18T01:02:55;15.98;;;13.32;;
45342;SDS011;31077;50.872;4.352;2022-12-18T01:05:21;14.98;;;11.95;;
45342;SDS011;31077;50.872;4.352;2022-12-18T01:07:47;15.35;;;12.48;;
45342;SDS011;31077;50.872;4.352;2022-12-18T01:10:13;15.70;;;12.43;;
45342;SDS011;31077;50.872;4.352;2022-12-18T01:12:39;15.40;;;13.02;;
45342;SDS011;31077;50.872;4.352;2022-12-18T01:15:05;15.65;;;12.90;;
45342;SDS011;31077;50.872;4.352;2022-12-18T01:17:32;14.60;;;12.27;;
45342;SDS011;31077;50.872;4.352;2022-12-18T01:19:58;14.80;;;11.05;;
45342;SDS011;31077;50.872;4.352;2022-12-18T01:22:24;15.85;;;12.95;;
45342;SDS011;31077;50.872;4.352;2022-12-18T01:24:50;16.88;;;13.07;;
45342;SDS011;31077;50.872;4.352;2022-12-18T01:27:16;15.07;;;12.18;;
45342;SDS011;31077;50.872;4.352;2022-12-18T01:29:41;15.80;;;12.02;;
45342;SDS011;31077;50.872;4.352;2022-12-18T01:32:07;16.58;;;12.68;;
45342;SDS011;31077;50.872;4.352;2022-12-18T01:34:35;16.40;;;12.88;;
45342;SDS011;31077;50.872;4.352;2022-12-18T01:37:05;16.27;;;12.45;;
45342;SDS011;31077;50.872;4.352;2022-12-18T01:39:31;15.02;;;11.85;;
45342;SDS011;31077;50.872;4.352;2022-12-18T01:41:58;13.43;;;11.07;;
45342;SDS011;31077;50.872;4.352;2022-12-18T01:47:39;13.73;;;11.48;;
45342;SDS011;31077;50.872;4.352;2022-12-18T01:50:15;14.68;;;11.88;;
45342;SDS011;31077;50.872;4.352;2022-12-18T01:52:51;15.07;;;12.40;;
45342;SDS011;31077;50.872;4.352;2022-12-18T01:55:29;15.75;;;12.38;;
45342;SDS011;31077;50.872;4.352;2022-12-18T01:57:57;14.73;;;11.10;;
45342;SDS011;31077;50.872;4.352;2022-12-18T02:00:25;15.63;;;11.60;;
45342;SDS011;31077;50.872;4.352;2022-12-18T02:02:51;16.13;;;11.98;;
45342;SDS011;31077;50.872;4.352;2022-12-18T02:08:29;15.48;;;11.68;;
45342;SDS011;31077;50.872;4.352;2022-12-18T02:16:33;14.95;;;11.18;;
45342;SDS011;31077;50.872;4.352;2022-12-18T02:22:02;14.17;;;11.40;;
45342;SDS011;31077;50.872;4.352;2022-12-18T02:27:41;13.05;;;10.82;;
45342;SDS011;31077;50.872;4.352;2022-12-18T02:30:10;13.85;;;10.90;;
45342;SDS011;31077;50.872;4.352;2022-12-18T02:32:41;14.23;;;11.38;;
45342;SDS011;31077;50.872;4.352;2022-12-18T02:35:15;14.68;;;10.70;;
45342;SDS011;31077;50.872;4.352;2022-12-18T02:37:44;14.55;;;10.88;;
45342;SDS011;31077;50.872;4.352;2022-12-18T02:40:12;14.73;;;11.30;;
45342;SDS011;31077;50.872;4.352;2022-12-18T02:42:40;12.70;;;9.95;;
45342;SDS011;31077;50.872;4.352;2022-12-18T02:45:05;14.63;;;10.95;;
45342;SDS011;31077;50.872;4.352;2022-12-18T02:47:34;12.60;;;10.00;;
45342;SDS011;31077;50.872;4.352;2022-12-18T03:04:25;13.85;;;11.02;;
45342;SDS011;31077;50.872;4.352;2022-12-18T03:06:53;13.77;;;10.60;;
45342;SDS011;31077;50.872;4.352;2022-12-18T03:09:24;13.07;;;10.52;;
45342;SDS011;31077;50.872;4.352;2022-12-18T03:15:09;12.60;;;10.32;;
45342;SDS011;31077;50.872;4.352;2022-12-18T03:17:40;12.25;;;9.75;;
45342;SDS011;31077;50.872;4.352;2022-12-18T03:20:14;11.55;;;9.50;;
45342;SDS011;31077;50.872;4.352;2022-12-18T03:22:44;13.73;;;10.73;;
45342;SDS011;31077;50.872;4.352;2022-12-18T03:25:13;12.15;;;10.00;;
45342;SDS011;31077;50.872;4.352;2022-12-18T03:27:42;11.95;;;9.80;;
45342;SDS011;31077;50.872;4.352;2022-12-18T03:30:12;11.93;;;9.35;;
45342;SDS011;31077;50.872;4.352;2022-12-18T03:33:23;10.90;;;9.00;;
45342;SDS011;31077;50.872;4.352;2022-12-18T03:35:33;11.70;;;9.82;;
45342;SDS011;31077;50.872;4.352;2022-12-18T03:38:03;11.63;;;9.52;;
45342;SDS011;31077;50.872;4.352;2022-12-18T03:40:44;13.60;;;9.48;;
45342;SDS011;31077;50.872;4.352;2022-12-18T03:49:12;11.87;;;9.30;;
45342;SDS011;31077;50.872;4.352;2022-12-18T03:52:09;12.60;;;10.05;;
45342;SDS011;31077;50.872;4.352;2022-12-18T03:54:43;10.98;;;9.23;;
45342;SDS011;31077;50.872;4.352;2022-12-18T03:57:19;11.25;;;9.13;;
45342;SDS011;31077;50.872;4.352;2022-12-18T03:59:47;10.90;;;9.00;;
45342;SDS011;31077;50.872;4.352;2022-12-18T04:02:17;11.05;;;9.25;;
45342;SDS011;31077;50.872;4.352;2022-12-18T04:04:43;9.38;;;8.18;;
45342;SDS011;31077;50.872;4.352;2022-12-18T04:07:11;11.68;;;9.63;;
45342;SDS011;31077;50.872;4.352;2022-12-18T04:09:39;13.13;;;9.35;;
45342;SDS011;31077;50.872;4.352;2022-12-18T04:12:08;11.77;;;9.05;;
45342;SDS011;31077;50.872;4.352;2022-12-18T04:14:34;9.60;;;8.07;;
45342;SDS011;31077;50.872;4.352;2022-12-18T04:17:01;11.25;;;9.02;;
45342;SDS011;31077;50.872;4.352;2022-12-18T04:19:27;11.35;;;8.73;;
45342;SDS011;31077;50.872;4.352;2022-12-18T04:21:53;11.30;;;8.98;;
45342;SDS011;31077;50.872;4.352;2022-12-18T04:24:19;10.35;;;8.48;;
45342;SDS011;31077;50.872;4.352;2022-12-18T04:26:45;11.73;;;8.95;;
45342;SDS011;31077;50.872;4.352;2022-12-18T04:29:11;12.63;;;9.50;;
45342;SDS011;31077;50.872;4.352;2022-12-18T04:31:36;11.80;;;7.75;;
45342;SDS011;31077;50.872;4.352;2022-12-18T04:34:02;11.95;;;9.48;;
45342;SDS011;31077;50.872;4.352;2022-12-18T04:36:28;10.85;;;8.85;;
45342;SDS011;31077;50.872;4.352;2022-12-18T04:38:54;10.70;;;8.57;;
45342;SDS011;31077;50.872;4.352;2022-12-18T04:41:20;12.15;;;8.85;;
45342;SDS011;31077;50.872;4.352;2022-12-18T04:43:46;10.60;;;8.05;;
45342;SDS011;31077;50.872;4.352;2022-12-18T04:46:12;10.20;;;8.38;;
45342;SDS011;31077;50.872;4.352;2022-12-18T04:48:37;10.82;;;8.63;;
45342;SDS011;31077;50.872;4.352;2022-12-18T04:51:04;9.63;;;8.30;;
45342;SDS011;31077;50.872;4.352;2022-12-18T04:53:30;9.70;;;7.55;;
45342;SDS011;31077;50.872;4.352;2022-12-18T04:56:04;9.13;;;7.63;;
45342;SDS011;31077;50.872;4.352;2022-12-18T04:58:31;9.67;;;7.80;;
45342;SDS011;31077;50.872;4.352;2022-12-18T05:00:57;10.75;;;8.23;;
45342;SDS011;31077;50.872;4.352;2022-12-18T05:03:23;9.93;;;8.18;;
45342;SDS011;31077;50.872;4.352;2022-12-18T05:05:49;9.48;;;7.88;;
45342;SDS011;31077;50.872;4.352;2022-12-18T05:08:15;10.13;;;8.02;;
45342;SDS011;31077;50.872;4.352;2022-12-18T05:10:41;9.30;;;7.35;;
45342;SDS011;31077;50.872;4.352;2022-12-18T05:13:07;9.88;;;7.45;;
45342;SDS011;31077;50.872;4.352;2022-12-18T05:15:33;10.15;;;7.82;;
45342;SDS011;31077;50.872;4.352;2022-12-18T05:17:59;11.70;;;8.25;;
45342;SDS011;31077;50.872;4.352;2022-12-18T05:20:26;9.75;;;7.53;;
45342;SDS011;31077;50.872;4.352;2022-12-18T05:22:53;9.52;;;7.50;;
45342;SDS011;31077;50.872;4.352;2022-12-18T05:25:19;11.13;;;7.65;;
45342;SDS011;31077;50.872;4.352;2022-12-18T05:27:45;9.07;;;7.03;;
45342;SDS011;31077;50.872;4.352;2022-12-18T05:30:12;10.63;;;8.15;;
45342;SDS011;31077;50.872;4.352;2022-12-18T05:32:38;9.48;;;7.43;;
45342;SDS011;31077;50.872;4.352;2022-12-18T05:35:05;8.88;;;6.97;;
45342;SDS011;31077;50.872;4.352;2022-12-18T05:37:32;12.68;;;8.45;;
45342;SDS011;31077;50.872;4.352;2022-12-18T05:39:58;9.90;;;6.95;;
45342;SDS011;31077;50.872;4.352;2022-12-18T05:42:24;9.45;;;7.30;;
45342;SDS011;31077;50.872;4.352;2022-12-18T05:44:50;10.02;;;7.78;;
45342;SDS011;31077;50.872;4.352;2022-12-18T05:47:16;8.43;;;6.20;;
45342;SDS011;31077;50.872;4.352;2022-12-18T05:49:42;10.13;;;7.57;;
45342;SDS011;31077;50.872;4.352;2022-12-18T05:52:08;10.23;;;7.55;;
45342;SDS011;31077;50.872;4.352;2022-12-18T05:54:34;10.55;;;7.25;;
45342;SDS011;31077;50.872;4.352;2022-12-18T05:57:00;9.07;;;7.07;;
45342;SDS011;31077;50.872;4.352;2022-12-18T05:59:25;10.40;;;7.30;;
45342;SDS011;31077;50.872;4.352;2022-12-18T06:01:51;9.93;;;7.55;;
45342;SDS011;31077;50.872;4.352;2022-12-18T06:04:17;9.35;;;7.00;;
45342;SDS011;31077;50.872;4.352;2022-12-18T06:06:43;9.20;;;7.13;;
45342;SDS011;31077;50.872;4.352;2022-12-18T06:09:08;8.30;;;6.80;;
45342;SDS011;31077;50.872;4.352;2022-12-18T06:11:35;10.40;;;7.65;;
45342;SDS011;31077;50.872;4.352;2022-12-18T06:14:02;8.55;;;6.75;;
45342;SDS011;31077;50.872;4.352;2022-12-18T06:16:29;8.57;;;6.45;;
45342;SDS011;31077;50.872;4.352;2022-12-18T06:18:59;8.35;;;6.75;;
45342;SDS011;31077;50.872;4.352;2022-12-18T06:21:25;8.52;;;6.88;;
45342;SDS011;31077;50.872;4.352;2022-12-18T06:23:52;9.35;;;7.07;;
45342;SDS011;31077;50.872;4.352;2022-12-18T06:26:18;8.65;;;7.22;;
45342;SDS011;31077;50.872;4.352;2022-12-18T06:28:44;9.38;;;7.03;;
45342;SDS011;31077;50.872;4.352;2022-12-18T06:31:10;11.25;;;7.85;;
45342;SDS011;31077;50.872;4.352;2022-12-18T06:33:36;8.07;;;6.50;;
45342;SDS011;31077;50.872;4.352;2022-12-18T06:36:07;9.13;;;6.80;;
45342;SDS011;31077;50.872;4.352;2022-12-18T06:38:35;8.20;;;6.50;;
45342;SDS011;31077;50.872;4.352;2022-12-18T06:41:08;10.18;;;7.15;;
45342;SDS011;31077;50.872;4.352;2022-12-18T06:43:35;8.30;;;6.60;;
45342;SDS011;31077;50.872;4.352;2022-12-18T06:46:01;8.85;;;7.28;;
45342;SDS011;31077;50.872;4.352;2022-12-18T06:48:28;9.77;;;6.93;;
45342;SDS011;31077;50.872;4.352;2022-12-18T06:50:54;10.50;;;7.53;;
45342;SDS011;31077;50.872;4.352;2022-12-18T06:53:20;8.93;;;6.68;;
45342;SDS011;31077;50.872;4.352;2022-12-18T06:55:46;7.97;;;6.38;;
45342;SDS011;31077;50.872;4.352;2022-12-18T06:58:12;9.65;;;7.65;;
45342;SDS011;31077;50.872;4.352;2022-12-18T07:00:37;7.43;;;5.72;;
45342;SDS011;31077;50.872;4.352;2022-12-18T07:03:03;9.00;;;6.60;;
45342;SDS011;31077;50.872;4.352;2022-12-18T07:05:29;10.32;;;7.18;;
45342;SDS011;31077;50.872;4.352;2022-12-18T07:07:55;7.28;;;6.10;;
45342;SDS011;31077;50.872;4.352;2022-12-18T07:10:20;8.95;;;6.30;;
45342;SDS011;31077;50.872;4.352;2022-12-18T07:12:46;7.53;;;6.07;;
45342;SDS011;31077;50.872;4.352;2022-12-18T07:15:12;8.27;;;6.38;;
45342;SDS011;31077;50.872;4.352;2022-12-18T07:17:38;7.40;;;6.15;;
45342;SDS011;31077;50.872;4.352;2022-12-18T07:20:03;8.02;;;5.97;;
45342;SDS011;31077;50.872;4.352;2022-12-18T07:22:30;8.25;;;6.57;;
45342;SDS011;31077;50.872;4.352;2022-12-18T07:24:55;8.10;;;6.13;;
45342;SDS011;31077;50.872;4.352;2022-12-18T07:27:21;9.70;;;6.68;;
45342;SDS011;31077;50.872;4.352;2022-12-18T07:29:48;9.32;;;6.22;;
45342;SDS011;31077;50.872;4.352;2022-12-18T07:32:13;6.53;;;5.53;;
45342;SDS011;31077;50.872;4.352;2022-12-18T07:34:39;7.57;;;6.15;;
45342;SDS011;31077;50.872;4.352;2022-12-18T07:37:05;7.97;;;6.00;;
45342;SDS011;31077;50.872;4.352;2022-12-18T07:39:31;6.78;;;5.78;;
45342;SDS011;31077;50.872;4.352;2022-12-18T07:41:56;8.23;;;6.03;;
45342;SDS011;31077;50.872;4.352;2022-12-18T07:44:42;6.40;;;5.22;;
45342;SDS011;31077;50.872;4.352;2022-12-18T07:47:08;8.20;;;6.28;;
45342;SDS011;31077;50.872;4.352;2022-12-18T07:49:36;7.60;;;6.05;;
45342;SDS011;31077;50.872;4.352;2022-12-18T07:52:02;8.32;;;6.13;;
45342;SDS011;31077;50.872;4.352;2022-12-18T07:54:28;7.95;;;5.95;;
45342;SDS011;31077;50.872;4.352;2022-12-18T07:56:53;7.93;;;5.63;;
45342;SDS011;31077;50.872;4.352;2022-12-18T07:59:19;7.57;;;5.80;;
45342;SDS011;31077;50.872;4.352;2022-12-18T08:01:45;7.05;;;5.78;;
45342;SDS011;31077;50.872;4.352;2022-12-18T08:04:11;8.10;;;5.93;;
45342;SDS011;31077;50.872;4.352;2022-12-18T08:06:36;6.60;;;5.22;;
45342;SDS011;31077;50.872;4.352;2022-12-18T08:09:02;7.85;;;6.00;;
45342;SDS011;31077;50.872;4.352;2022-12-18T08:11:28;6.85;;;5.35;;
45342;SDS011;31077;50.872;4.352;2022-12-18T08:13:55;8.27;;;5.75;;
45342;SDS011;31077;50.872;4.352;2022-12-18T08:16:21;6.97;;;5.05;;
45342;SDS011;31077;50.872;4.352;2022-12-18T08:18:47;9.48;;;5.45;;
45342;SDS011;31077;50.872;4.352;2022-12-18T08:21:16;7.80;;;5.78;;
45342;SDS011;31077;50.872;4.352;2022-12-18T08:23:48;6.32;;;5.15;;
45342;SDS011;31077;50.872;4.352;2022-12-18T08:26:15;8.10;;;5.80;;
45342;SDS011;31077;50.872;4.352;2022-12-18T08:28:41;8.13;;;5.75;;
45342;SDS011;31077;50.872;4.352;2022-12-18T08:31:07;6.80;;;5.53;;
45342;SDS011;31077;50.872;4.352;2022-12-18T08:33:33;6.72;;;5.53;;
45342;SDS011;31077;50.872;4.352;2022-12-18T08:36:00;7.68;;;5.40;;
45342;SDS011;31077;50.872;4.352;2022-12-18T08:38:27;7.88;;;5.68;;
45342;SDS011;31077;50.872;4.352;2022-12-18T08:41:03;7.28;;;5.45;;
45342;SDS011;31077;50.872;4.352;2022-12-18T08:43:34;6.95;;;5.30;;
45342;SDS011;31077;50.872;4.352;2022-12-18T08:46:19;8.68;;;5.53;;
45342;SDS011;31077;50.872;4.352;2022-12-18T08:48:45;6.10;;;4.80;;
45342;SDS011;31077;50.872;4.352;2022-12-18T08:51:12;6.85;;;5.35;;
45342;SDS011;31077;50.872;4.352;2022-12-18T08:53:38;10.35;;;6.53;;
45342;SDS011;31077;50.872;4.352;2022-12-18T08:56:04;6.72;;;5.40;;
45342;SDS011;31077;50.872;4.352;2022-12-18T08:58:30;6.55;;;5.55;;
45342;SDS011;31077;50.872;4.352;2022-12-18T09:00:59;6.90;;;5.65;;
45342;SDS011;31077;50.872;4.352;2022-12-18T09:03:26;9.05;;;5.72;;
45342;SDS011;31077;50.872;4.352;2022-12-18T09:05:52;7.00;;;5.45;;
45342;SDS011;31077;50.872;4.352;2022-12-18T09:08:18;7.28;;;5.15;;
45342;SDS011;31077;50.872;4.352;2022-12-18T09:10:45;7.43;;;5.53;;
45342;SDS011;31077;50.872;4.352;2022-12-18T09:13:15;7.05;;;5.25;;
45342;SDS011;31077;50.872;4.352;2022-12-18T09:15:42;6.43;;;4.70;;
45342;SDS011;31077;50.872;4.352;2022-12-18T09:18:12;8.55;;;4.50;;
45342;SDS011;31077;50.872;4.352;2022-12-18T09:20:39;6.78;;;5.07;;
45342;SDS011;31077;50.872;4.352;2022-12-18T09:23:05;6.60;;;5.07;;
45342;SDS011;31077;50.872;4.352;2022-12-18T09:25:32;8.55;;;5.43;;
45342;SDS011;31077;50.872;4.352;2022-12-18T09:28:01;6.43;;;4.88;;
45342;SDS011;31077;50.872;4.352;2022-12-18T09:30:27;6.05;;;4.80;;
45342;SDS011;31077;50.872;4.352;2022-12-18T09:32:53;5.47;;;4.32;;
45342;SDS011;31077;50.872;4.352;2022-12-18T09:35:19;5.65;;;4.53;;
45342;SDS011;31077;50.872;4.352;2022-12-18T09:37:45;6.43;;;5.15;;
45342;SDS011;31077;50.872;4.352;2022-12-18T09:40:15;6.30;;;4.55;;
45342;SDS011;31077;50.872;4.352;2022-12-18T09:42:44;6.78;;;4.82;;
45342;SDS011;31077;50.872;4.352;2022-12-18T09:45:13;6.00;;;4.57;;
45342;SDS011;31077;50.872;4.352;2022-12-18T09:47:41;6.40;;;4.95;;
45342;SDS011;31077;50.872;4.352;2022-12-18T09:53:02;6.20;;;4.35;;
45342;SDS011;31077;50.872;4.352;2022-12-18T09:55:36;5.93;;;4.47;;
45342;SDS011;31077;50.872;4.352;2022-12-18T10:00:46;6.05;;;4.30;;
45342;SDS011;31077;50.872;4.352;2022-12-18T10:03:12;6.10;;;4.53;;
45342;SDS011;31077;50.872;4.352;2022-12-18T10:16:56;6.50;;;4.80;;
45342;SDS011;31077;50.872;4.352;2022-12-18T10:27:17;6.10;;;4.80;;
45342;SDS011;31077;50.872;4.352;2022-12-18T10:29:46;6.28;;;4.63;;
45342;SDS011;31077;50.872;4.352;2022-12-18T10:32:13;6.35;;;4.65;;
45342;SDS011;31077;50.872;4.352;2022-12-18T10:34:47;7.45;;;4.68;;
45342;SDS011;31077;50.872;4.352;2022-12-18T10:37:17;7.05;;;5.10;;
45342;SDS011;31077;50.872;4.352;2022-12-18T10:39:46;6.35;;;4.70;;
45342;SDS011;31077;50.872;4.352;2022-12-18T10:42:32;6.10;;;4.50;;
45342;SDS011;31077;50.872;4.352;2022-12-18T10:45:12;7.65;;;5.25;;
45342;SDS011;31077;50.872;4.352;2022-12-18T10:47:46;5.32;;;4.30;;
45342;SDS011;31077;50.872;4.352;2022-12-18T10:50:23;5.13;;;4.22;;
45342;SDS011;31077;50.872;4.352;2022-12-18T10:53:00;7.00;;;5.07;;
45342;SDS011;31077;50.872;4.352;2022-12-18T10:55:32;6.80;;;4.90;;
45342;SDS011;31077;50.872;4.352;2022-12-18T11:01:13;7.13;;;5.18;;
45342;SDS011;31077;50.872;4.352;2022-12-18T11:06:20;7.00;;;4.90;;
45342;SDS011;31077;50.872;4.352;2022-12-18T11:11:55;6.40;;;4.80;;
45342;SDS011;31077;50.872;4.352;2022-12-18T11:14:28;7.25;;;5.22;;
45342;SDS011;31077;50.872;4.352;2022-12-18T11:16:54;6.75;;;4.80;;
45342;SDS011;31077;50.872;4.352;2022-12-18T11:21:58;6.28;;;5.03;;
45342;SDS011;31077;50.872;4.352;2022-12-18T11:24:34;8.53;;;6.23;;
45342;SDS011;31077;50.872;4.352;2022-12-18T11:27:03;8.32;;;5.65;;
45342;SDS011;31077;50.872;4.352;2022-12-18T11:32:19;8.38;;;5.65;;
45342;SDS011;31077;50.872;4.352;2022-12-18T11:37:15;7.38;;;4.97;;
45342;SDS011;31077;50.872;4.352;2022-12-18T11:39:55;7.07;;;5.85;;
45342;SDS011;31077;50.872;4.352;2022-12-18T11:48:25;7.22;;;5.13;;
45342;SDS011;31077;50.872;4.352;2022-12-18T11:50:55;7.53;;;5.65;;
45342;SDS011;31077;50.872;4.352;2022-12-18T11:53:24;6.70;;;5.47;;
45342;SDS011;31077;50.872;4.352;2022-12-18T11:58:49;6.25;;;5.05;;
45342;SDS011;31077;50.872;4.352;2022-12-18T12:20:06;10.07;;;5.43;;
45342;SDS011;31077;50.872;4.352;2022-12-18T12:22:53;7.22;;;4.93;;
45342;SDS011;31077;50.872;4.352;2022-12-18T12:25:41;6.97;;;5.00;;
45342;SDS011;31077;50.872;4.352;2022-12-18T12:28:35;9.15;;;6.32;;
45342;SDS011;31077;50.872;4.352;2022-12-18T12:31:25;8.05;;;5.47;;
45342;SDS011;31077;50.872;4.352;2022-12-18T12:34:15;8.38;;;5.70;;
45342;SDS011;31077;50.872;4.352;2022-12-18T12:42:08;8.15;;;5.90;;
45342;SDS011;31077;50.872;4.352;2022-12-18T12:45:01;7.30;;;5.63;;
45342;SDS011;31077;50.872;4.352;2022-12-18T12:47:32;8.20;;;6.18;;
45342;SDS011;31077;50.872;4.352;2022-12-18T12:50:02;7.80;;;6.03;;
45342;SDS011;31077;50.872;4.352;2022-12-18T12:53:05;7.38;;;5.50;;
45342;SDS011;31077;50.872;4.352;2022-12-18T12:55:26;7.72;;;6.22;;
45342;SDS011;31077;50.872;4.352;2022-12-18T13:00:39;9.57;;;5.60;;
45342;SDS011;31077;50.872;4.352;2022-12-18T13:06:29;9.13;;;6.10;;
45342;SDS011;31077;50.872;4.352;2022-12-18T13:09:05;8.32;;;5.85;;
45342;SDS011;31077;50.872;4.352;2022-12-18T13:11:35;9.60;;;6.53;;
45342;SDS011;31077;50.872;4.352;2022-12-18T13:14:23;8.75;;;5.85;;
45342;SDS011;31077;50.872;4.352;2022-12-18T13:17:13;8.13;;;6.15;;
45342;SDS011;31077;50.872;4.352;2022-12-18T13:19:50;7.70;;;5.40;;
45342;SDS011;31077;50.872;4.352;2022-12-18T13:22:25;7.40;;;5.50;;
45342;SDS011;31077;50.872;4.352;2022-12-18T13:24:56;7.97;;;6.20;;
45342;SDS011;31077;50.872;4.352;2022-12-18T13:28:05;8.07;;;6.35;;
45342;SDS011;31077;50.872;4.352;2022-12-18T13:48:29;7.47;;;5.80;;
45342;SDS011;31077;50.872;4.352;2022-12-18T13:56:32;9.27;;;6.35;;
45342;SDS011;31077;50.872;4.352;2022-12-18T14:02:12;9.38;;;5.88;;
45342;SDS011;31077;50.872;4.352;2022-12-18T14:04:46;10.63;;;5.70;;
45342;SDS011;31077;50.872;4.352;2022-12-18T14:09:59;8.57;;;5.95;;
45342;SDS011;31077;50.872;4.352;2022-12-18T14:12:48;10.20;;;5.50;;
45342;SDS011;31077;50.872;4.352;2022-12-18T14:15:39;7.10;;;5.85;;
45342;SDS011;31077;50.872;4.352;2022-12-18T14:21:26;7.47;;;5.88;;
45342;SDS011;31077;50.872;4.352;2022-12-18T14:26:52;9.30;;;6.97;;
45342;SDS011;31077;50.872;4.352;2022-12-18T14:30:43;8.73;;;6.47;;
45342;SDS011;31077;50.872;4.352;2022-12-18T14:33:55;7.97;;;5.95;;
45342;SDS011;31077;50.872;4.352;2022-12-18T14:36:38;8.75;;;6.07;;
45342;SDS011;31077;50.872;4.352;2022-12-18T14:39:16;10.07;;;6.25;;
45342;SDS011;31077;50.872;4.352;2022-12-18T14:41:44;9.05;;;7.07;;
45342;SDS011;31077;50.872;4.352;2022-12-18T14:44:16;9.82;;;7.20;;
45342;SDS011;31077;50.872;4.352;2022-12-18T14:46:48;8.88;;;7.25;;
45342;SDS011;31077;50.872;4.352;2022-12-18T14:52:35;8.80;;;7.03;;
45342;SDS011;31077;50.872;4.352;2022-12-18T14:55:04;7.97;;;6.40;;
45342;SDS011;31077;50.872;4.352;2022-12-18T14:57:36;9.40;;;6.82;;
45342;SDS011;31077;50.872;4.352;2022-12-18T15:00:11;16.95;;;6.20;;
45342;SDS011;31077;50.872;4.352;2022-12-18T15:02:54;9.25;;;7.18;;
45342;SDS011;31077;50.872;4.352;2022-12-18T15:09:26;9.70;;;6.95;;
45342;SDS011;31077;50.872;4.352;2022-12-18T15:12:35;10.13;;;6.88;;
45342;SDS011;31077;50.872;4.352;2022-12-18T15:15:54;9.40;;;6.70;;
45342;SDS011;31077;50.872;4.352;2022-12-18T15:18:33;11.77;;;6.82;;
45342;SDS011;31077;50.872;4.352;2022-12-18T15:21:16;8.77;;;6.38;;
45342;SDS011;31077;50.872;4.352;2022-12-18T15:24:30;9.43;;;7.18;;
45342;SDS011;31077;50.872;4.352;2022-12-18T15:27:40;10.15;;;6.80;;
45342;SDS011;31077;50.872;4.352;2022-12-18T15:30:27;8.20;;;6.63;;
45342;SDS011;31077;50.872;4.352;2022-12-18T15:33:16;8.70;;;7.13;;
45342;SDS011;31077;50.872;4.352;2022-12-18T15:36:02;9.75;;;6.88;;
45342;SDS011;31077;50.872;4.352;2022-12-18T15:38:41;10.35;;;7.45;;
45342;SDS011;31077;50.872;4.352;2022-12-18T15:41:22;8.95;;;6.93;;
45342;SDS011;31077;50.872;4.352;2022-12-18T15:44:23;8.75;;;6.50;;
45342;SDS011;31077;50.872;4.352;2022-12-18T15:50:04;10.70;;;6.93;;
45342;SDS011;31077;50.872;4.352;2022-12-18T15:52:32;11.05;;;6.63;;
45342;SDS011;31077;50.872;4.352;2022-12-18T15:55:16;8.50;;;7.40;;
45342;SDS011;31077;50.872;4.352;2022-12-18T15:58:06;10.45;;;6.80;;
45342;SDS011;31077;50.872;4.352;2022-12-18T16:00:34;7.75;;;5.97;;
45342;SDS011;31077;50.872;4.352;2022-12-18T16:03:01;10.20;;;7.22;;
45342;SDS011;31077;50.872;4.352;2022-12-18T16:05:29;10.65;;;7.07;;
45342;SDS011;31077;50.872;4.352;2022-12-18T16:07:55;9.35;;;6.63;;
45342;SDS011;31077;50.872;4.352;2022-12-18T16:10:22;10.10;;;6.63;;
45342;SDS011;31077;50.872;4.352;2022-12-18T16:12:49;8.77;;;6.50;;
45342;SDS011;31077;50.872;4.352;2022-12-18T16:15:15;7.95;;;6.35;;
45342;SDS011;31077;50.872;4.352;2022-12-18T16:17:42;9.18;;;6.85;;
45342;SDS011;31077;50.872;4.352;2022-12-18T16:20:12;11.23;;;7.25;;
45342;SDS011;31077;50.872;4.352;2022-12-18T16:22:41;15.40;;;7.90;;
45342;SDS011;31077;50.872;4.352;2022-12-18T16:25:20;15.52;;;7.55;;
45342;SDS011;31077;50.872;4.352;2022-12-18T16:27:51;10.40;;;7.03;;
45342;SDS011;31077;50.872;4.352;2022-12-18T16:30:21;9.38;;;7.32;;
45342;SDS011;31077;50.872;4.352;2022-12-18T16:32:53;9.70;;;6.85;;
45342;SDS011;31077;50.872;4.352;2022-12-18T16:35:19;9.55;;;7.18;;
45342;SDS011;31077;50.872;4.352;2022-12-18T16:37:45;11.20;;;8.18;;
45342;SDS011;31077;50.872;4.352;2022-12-18T16:40:13;9.00;;;6.80;;
45342;SDS011;31077;50.872;4.352;2022-12-18T16:42:40;12.70;;;7.57;;
45342;SDS011;31077;50.872;4.352;2022-12-18T16:45:08;8.85;;;6.80;;
45342;SDS011;31077;50.872;4.352;2022-12-18T16:47:35;10.73;;;7.28;;
45342;SDS011;31077;50.872;4.352;2022-12-18T16:50:01;11.38;;;7.47;;
45342;SDS011;31077;50.872;4.352;2022-12-18T16:52:28;10.15;;;7.65;;
45342;SDS011;31077;50.872;4.352;2022-12-18T16:54:54;9.43;;;7.05;;
45342;SDS011;31077;50.872;4.352;2022-12-18T16:57:20;9.70;;;7.40;;
45342;SDS011;31077;50.872;4.352;2022-12-18T16:59:47;10.20;;;6.68;;
45342;SDS011;31077;50.872;4.352;2022-12-18T17:02:14;10.93;;;8.07;;
45342;SDS011;31077;50.872;4.352;2022-12-18T17:04:43;20.30;;;7.10;;
45342;SDS011;31077;50.872;4.352;2022-12-18T17:07:09;10.45;;;7.68;;
45342;SDS011;31077;50.872;4.352;2022-12-18T17:09:37;13.48;;;7.65;;
45342;SDS011;31077;50.872;4.352;2022-12-18T17:12:04;10.57;;;6.97;;
45342;SDS011;31077;50.872;4.352;2022-12-18T17:14:30;9.43;;;7.03;;
45342;SDS011;31077;50.872;4.352;2022-12-18T17:16:57;10.32;;;7.05;;
45342;SDS011;31077;50.872;4.352;2022-12-18T17:19:24;13.35;;;7.05;;
45342;SDS011;31077;50.872;4.352;2022-12-18T17:21:50;9.32;;;6.75;;
45342;SDS011;31077;50.872;4.352;2022-12-18T17:24:16;14.57;;;7.55;;
45342;SDS011;31077;50.872;4.352;2022-12-18T17:26:43;8.95;;;6.50;;
45342;SDS011;31077;50.872;4.352;2022-12-18T17:29:11;9.05;;;7.03;;
45342;SDS011;31077;50.872;4.352;2022-12-18T17:31:39;10.52;;;7.68;;
45342;SDS011;31077;50.872;4.352;2022-12-18T17:34:05;11.10;;;7.40;;
45342;SDS011;31077;50.872;4.352;2022-12-18T17:36:32;11.05;;;7.20;;
45342;SDS011;31077;50.872;4.352;2022-12-18T17:38:59;10.75;;;7.82;;
45342;SDS011;31077;50.872;4.352;2022-12-18T17:41:26;11.85;;;7.22;;
45342;SDS011;31077;50.872;4.352;2022-12-18T17:43:57;9.80;;;7.53;;
45342;SDS011;31077;50.872;4.352;2022-12-18T17:46:26;8.32;;;6.90;;
45342;SDS011;31077;50.872;4.352;2022-12-18T17:48:57;8.55;;;6.78;;